sensor_id;sensor_type;location;lat;lon;timestamp;temperature;humidity
15819;DHT22;8010;53.986;12.106;2024-02-16T00:01:32;11.80;99.90
15819;DHT22;8010;53.986;12.106;2024-02-16T00:03:58;11.80;99.90
15819;DHT22;8010;53.986;12.106;2024-02-16T00:06:23;11.80;99.90
15819;DHT22;8010;53.986;12.106;2024-02-16T00:08:49;11.80;99.90
15819;DHT22;8010;53.986;12.106;2024-02-16T00:11:14;11.80;99.90
15819;DHT22;8010;53.986;12.106;2024-02-16T00:13:40;11.80;99.90
15819;DHT22;8010;53.986;12.106;2024-02-16T00:16:05;11.80;99.90
15819;DHT22;8010;53.986;12.106;2024-02-16T00:18:31;11.80;99.90
15819;DHT22;8010;53.986;12.106;2024-02-16T00:20:57;11.80;99.90
15819;DHT22;8010;53.986;12.106;2024-02-16T00:23:22;11.80;99.90
15819;DHT22;8010;53.986;12.106;2024-02-16T00:25:50;11.70;99.90
15819;DHT22;8010;53.986;12.106;2024-02-16T00:28:16;11.70;99.90
15819;DHT22;8010;53.986;12.106;2024-02-16T00:30:41;11.70;99.90
15819;DHT22;8010;53.986;12.106;2024-02-16T00:33:07;11.70;99.90
15819;DHT22;8010;53.986;12.106;2024-02-16T00:35:32;11.70;99.90
15819;DHT22;8010;53.986;12.106;2024-02-16T00:37:59;11.70;99.90
15819;DHT22;8010;53.986;12.106;2024-02-16T00:40:25;11.70;99.90
15819;DHT22;8010;53.986;12.106;2024-02-16T00:42:51;11.60;99.90
15819;DHT22;8010;53.986;12.106;2024-02-16T00:45:17;11.60;99.90
15819;DHT22;8010;53.986;12.106;2024-02-16T00:47:42;11.60;99.90
15819;DHT22;8010;53.986;12.106;2024-02-16T00:50:10;11.70;99.90
15819;DHT22;8010;53.986;12.106;2024-02-16T00:52:36;11.60;99.90
15819;DHT22;8010;53.986;12.106;2024-02-16T00:55:03;11.60;99.90
15819;DHT22;8010;53.986;12.106;2024-02-16T00:57:29;11.60;99.90
15819;DHT22;8010;53.986;12.106;2024-02-16T00:59:55;11.60;99.90
15819;DHT22;8010;53.986;12.106;2024-02-16T01:02:20;11.60;99.90
15819;DHT22;8010;53.986;12.106;2024-02-16T01:04:47;11.60;99.90
15819;DHT22;8010;53.986;12.106;2024-02-16T01:07:15;11.60;99.90
15819;DHT22;8010;53.986;12.106;2024-02-16T01:09:41;11.60;99.90
15819;DHT22;8010;53.986;12.106;2024-02-16T01:12:06;11.50;99.90
15819;DHT22;8010;53.986;12.106;2024-02-16T01:14:32;11.50;99.90
15819;DHT22;8010;53.986;12.106;2024-02-16T01:16:57;11.40;99.90
15819;DHT22;8010;53.986;12.106;2024-02-16T01:19:23;11.40;99.90
15819;DHT22;8010;53.986;12.106;2024-02-16T01:21:49;11.40;99.90
15819;DHT22;8010;53.986;12.106;2024-02-16T01:24:18;11.30;99.90
15819;DHT22;8010;53.986;12.106;2024-02-16T01:26:44;11.30;99.90
15819;DHT22;8010;53.986;12.106;2024-02-16T01:29:09;11.20;99.90
15819;DHT22;8010;53.986;12.106;2024-02-16T01:31:35;11.20;99.90
15819;DHT22;8010;53.986;12.106;2024-02-16T01:34:02;11.20;99.90
15819;DHT22;8010;53.986;12.106;2024-02-16T01:36:27;11.10;99.90
15819;DHT22;8010;53.986;12.106;2024-02-16T01:38:53;11.10;99.90
15819;DHT22;8010;53.986;12.106;2024-02-16T01:41:19;11.10;99.90
15819;DHT22;8010;53.986;12.106;2024-02-16T01:43:44;11.00;99.90
15819;DHT22;8010;53.986;12.106;2024-02-16T01:46:10;10.90;99.90
15819;DHT22;8010;53.986;12.106;2024-02-16T01:48:36;10.90;99.90
15819;DHT22;8010;53.986;12.106;2024-02-16T01:51:05;10.90;99.90
15819;DHT22;8010;53.986;12.106;2024-02-16T01:53:31;10.80;99.90
15819;DHT22;8010;53.986;12.106;2024-02-16T01:55:56;10.80;99.90
15819;DHT22;8010;53.986;12.106;2024-02-16T01:58:22;10.80;99.90
15819;DHT22;8010;53.986;12.106;2024-02-16T02:00:48;10.80;99.90
15819;DHT22;8010;53.986;12.106;2024-02-16T02:03:13;10.70;99.90
15819;DHT22;8010;53.986;12.106;2024-02-16T02:05:47;10.60;99.90
15819;DHT22;8010;53.986;12.106;2024-02-16T02:08:13;10.60;99.90
15819;DHT22;8010;53.986;12.106;2024-02-16T02:10:39;10.50;99.90
15819;DHT22;8010;53.986;12.106;2024-02-16T02:13:04;10.50;99.90
15819;DHT22;8010;53.986;12.106;2024-02-16T02:15:31;10.50;99.90
15819;DHT22;8010;53.986;12.106;2024-02-16T02:17:57;10.40;99.90
15819;DHT22;8010;53.986;12.106;2024-02-16T02:20:24;10.40;99.90
15819;DHT22;8010;53.986;12.106;2024-02-16T02:22:50;10.40;99.90
15819;DHT22;8010;53.986;12.106;2024-02-16T02:25:15;10.40;99.90
15819;DHT22;8010;53.986;12.106;2024-02-16T02:27:41;10.30;99.90
15819;DHT22;8010;53.986;12.106;2024-02-16T02:30:08;10.40;99.90
15819;DHT22;8010;53.986;12.106;2024-02-16T02:32:33;10.40;99.90
15819;DHT22;8010;53.986;12.106;2024-02-16T02:34:59;10.40;99.90
15819;DHT22;8010;53.986;12.106;2024-02-16T02:37:24;10.40;99.90
15819;DHT22;8010;53.986;12.106;2024-02-16T02:39:50;10.30;99.90
15819;DHT22;8010;53.986;12.106;2024-02-16T02:42:16;10.30;99.90
15819;DHT22;8010;53.986;12.106;2024-02-16T02:44:41;10.30;99.90
15819;DHT22;8010;53.986;12.106;2024-02-16T02:47:14;10.30;99.90
15819;DHT22;8010;53.986;12.106;2024-02-16T02:49:40;10.20;99.90
15819;DHT22;8010;53.986;12.106;2024-02-16T02:52:05;10.30;99.90
15819;DHT22;8010;53.986;12.106;2024-02-16T02:54:32;10.30;99.90
15819;DHT22;8010;53.986;12.106;2024-02-16T02:56:57;10.30;99.90
15819;DHT22;8010;53.986;12.106;2024-02-16T02:59:23;10.30;99.90
15819;DHT22;8010;53.986;12.106;2024-02-16T03:01:48;10.30;99.90
15819;DHT22;8010;53.986;12.106;2024-02-16T03:04:14;10.40;99.90
15819;DHT22;8010;53.986;12.106;2024-02-16T03:06:39;10.40;99.90
15819;DHT22;8010;53.986;12.106;2024-02-16T03:09:05;10.40;99.90
15819;DHT22;8010;53.986;12.106;2024-02-16T03:11:30;10.50;99.90
15819;DHT22;8010;53.986;12.106;2024-02-16T03:13:56;10.50;99.90
15819;DHT22;8010;53.986;12.106;2024-02-16T03:16:21;10.50;99.90
15819;DHT22;8010;53.986;12.106;2024-02-16T03:18:47;10.50;99.90
15819;DHT22;8010;53.986;12.106;2024-02-16T03:21:15;10.50;99.90
15819;DHT22;8010;53.986;12.106;2024-02-16T03:23:43;10.50;99.90
15819;DHT22;8010;53.986;12.106;2024-02-16T03:26:19;10.50;99.90
15819;DHT22;8010;53.986;12.106;2024-02-16T03:28:46;10.50;99.90
15819;DHT22;8010;53.986;12.106;2024-02-16T03:31:24;10.50;99.90
15819;DHT22;8010;53.986;12.106;2024-02-16T03:33:50;10.40;99.90
15819;DHT22;8010;53.986;12.106;2024-02-16T03:36:19;10.40;99.90
15819;DHT22;8010;53.986;12.106;2024-02-16T03:38:46;10.40;99.90
15819;DHT22;8010;53.986;12.106;2024-02-16T03:41:21;10.40;99.90
15819;DHT22;8010;53.986;12.106;2024-02-16T03:43:47;10.40;99.90
15819;DHT22;8010;53.986;12.106;2024-02-16T03:46:12;10.40;99.90
15819;DHT22;8010;53.986;12.106;2024-02-16T03:48:38;10.40;99.90
15819;DHT22;8010;53.986;12.106;2024-02-16T03:51:05;10.40;99.90
15819;DHT22;8010;53.986;12.106;2024-02-16T03:53:30;10.30;99.90
15819;DHT22;8010;53.986;12.106;2024-02-16T03:55:56;10.30;99.90
15819;DHT22;8010;53.986;12.106;2024-02-16T03:58:22;10.30;99.90
15819;DHT22;8010;53.986;12.106;2024-02-16T04:00:47;10.20;99.90
15819;DHT22;8010;53.986;12.106;2024-02-16T04:03:14;10.20;99.90
15819;DHT22;8010;53.986;12.106;2024-02-16T04:05:40;10.20;99.90
15819;DHT22;8010;53.986;12.106;2024-02-16T04:08:06;10.20;99.90
15819;DHT22;8010;53.986;12.106;2024-02-16T04:10:33;10.20;99.90
15819;DHT22;8010;53.986;12.106;2024-02-16T04:12:58;10.20;99.90
15819;DHT22;8010;53.986;12.106;2024-02-16T04:15:24;10.20;99.90
15819;DHT22;8010;53.986;12.106;2024-02-16T04:17:49;10.20;99.90
15819;DHT22;8010;53.986;12.106;2024-02-16T04:20:15;10.30;99.90
15819;DHT22;8010;53.986;12.106;2024-02-16T04:22:41;10.30;99.90
15819;DHT22;8010;53.986;12.106;2024-02-16T04:25:07;10.30;99.90
15819;DHT22;8010;53.986;12.106;2024-02-16T04:27:34;10.30;99.90
15819;DHT22;8010;53.986;12.106;2024-02-16T04:30:00;10.40;99.90
15819;DHT22;8010;53.986;12.106;2024-02-16T04:32:25;10.40;99.90
15819;DHT22;8010;53.986;12.106;2024-02-16T04:34:51;10.40;99.90
15819;DHT22;8010;53.986;12.106;2024-02-16T04:37:17;10.40;99.90
15819;DHT22;8010;53.986;12.106;2024-02-16T04:39:44;10.40;99.90
15819;DHT22;8010;53.986;12.106;2024-02-16T04:42:10;10.40;99.90
15819;DHT22;8010;53.986;12.106;2024-02-16T04:44:39;10.40;99.90
15819;DHT22;8010;53.986;12.106;2024-02-16T04:47:05;10.40;99.90
15819;DHT22;8010;53.986;12.106;2024-02-16T04:49:30;10.40;99.90
15819;DHT22;8010;53.986;12.106;2024-02-16T04:51:56;10.40;99.90
15819;DHT22;8010;53.986;12.106;2024-02-16T04:54:22;10.40;99.90
15819;DHT22;8010;53.986;12.106;2024-02-16T04:56:48;10.40;99.90
15819;DHT22;8010;53.986;12.106;2024-02-16T04:59:14;10.40;99.90
15819;DHT22;8010;53.986;12.106;2024-02-16T05:01:40;10.40;99.90
15819;DHT22;8010;53.986;12.106;2024-02-16T05:04:06;10.40;99.90
15819;DHT22;8010;53.986;12.106;2024-02-16T05:06:32;10.40;99.90
15819;DHT22;8010;53.986;12.106;2024-02-16T05:08:57;10.40;99.90
15819;DHT22;8010;53.986;12.106;2024-02-16T05:11:23;10.40;99.90
15819;DHT22;8010;53.986;12.106;2024-02-16T05:13:50;10.50;99.90
15819;DHT22;8010;53.986;12.106;2024-02-16T05:16:16;10.50;99.90
15819;DHT22;8010;53.986;12.106;2024-02-16T05:18:42;10.50;99.90
15819;DHT22;8010;53.986;12.106;2024-02-16T05:21:07;10.50;99.90
15819;DHT22;8010;53.986;12.106;2024-02-16T05:23:33;10.50;99.90
15819;DHT22;8010;53.986;12.106;2024-02-16T05:25:58;10.50;99.90
15819;DHT22;8010;53.986;12.106;2024-02-16T05:28:24;10.50;99.90
15819;DHT22;8010;53.986;12.106;2024-02-16T05:30:49;10.50;99.90
15819;DHT22;8010;53.986;12.106;2024-02-16T05:33:15;10.40;99.90
15819;DHT22;8010;53.986;12.106;2024-02-16T05:35:40;10.40;99.90
15819;DHT22;8010;53.986;12.106;2024-02-16T05:38:06;10.50;99.90
15819;DHT22;8010;53.986;12.106;2024-02-16T05:40:57;10.50;99.90
15819;DHT22;8010;53.986;12.106;2024-02-16T05:43:23;10.40;99.90
15819;DHT22;8010;53.986;12.106;2024-02-16T05:45:51;10.50;99.90
15819;DHT22;8010;53.986;12.106;2024-02-16T05:48:16;10.40;99.90
15819;DHT22;8010;53.986;12.106;2024-02-16T05:50:42;10.50;99.90
15819;DHT22;8010;53.986;12.106;2024-02-16T05:53:08;10.50;99.90
15819;DHT22;8010;53.986;12.106;2024-02-16T05:55:36;10.50;99.90
15819;DHT22;8010;53.986;12.106;2024-02-16T05:58:01;10.50;99.90
15819;DHT22;8010;53.986;12.106;2024-02-16T06:00:27;10.50;99.90
15819;DHT22;8010;53.986;12.106;2024-02-16T06:02:53;10.50;99.90
15819;DHT22;8010;53.986;12.106;2024-02-16T06:05:18;10.50;99.90
15819;DHT22;8010;53.986;12.106;2024-02-16T06:07:45;10.40;99.90
15819;DHT22;8010;53.986;12.106;2024-02-16T06:10:11;10.40;99.90
15819;DHT22;8010;53.986;12.106;2024-02-16T06:12:37;10.40;99.90
15819;DHT22;8010;53.986;12.106;2024-02-16T06:15:04;10.50;99.90
15819;DHT22;8010;53.986;12.106;2024-02-16T06:17:30;10.50;99.90
15819;DHT22;8010;53.986;12.106;2024-02-16T06:19:56;10.40;99.90
15819;DHT22;8010;53.986;12.106;2024-02-16T06:22:21;10.50;99.90
15819;DHT22;8010;53.986;12.106;2024-02-16T06:24:46;10.50;99.90
15819;DHT22;8010;53.986;12.106;2024-02-16T06:27:13;10.50;99.90
15819;DHT22;8010;53.986;12.106;2024-02-16T06:29:38;10.40;99.90
15819;DHT22;8010;53.986;12.106;2024-02-16T06:32:04;10.40;99.90
15819;DHT22;8010;53.986;12.106;2024-02-16T06:34:30;10.40;99.90
15819;DHT22;8010;53.986;12.106;2024-02-16T06:36:56;10.40;99.90
15819;DHT22;8010;53.986;12.106;2024-02-16T06:39:22;10.40;99.90
15819;DHT22;8010;53.986;12.106;2024-02-16T06:41:47;10.40;99.90
15819;DHT22;8010;53.986;12.106;2024-02-16T06:44:15;10.40;99.90
15819;DHT22;8010;53.986;12.106;2024-02-16T06:46:41;10.40;99.90
15819;DHT22;8010;53.986;12.106;2024-02-16T06:49:06;10.40;99.90
15819;DHT22;8010;53.986;12.106;2024-02-16T06:51:32;10.40;99.90
15819;DHT22;8010;53.986;12.106;2024-02-16T06:53:57;10.40;99.90
15819;DHT22;8010;53.986;12.106;2024-02-16T06:56:23;10.30;99.90
15819;DHT22;8010;53.986;12.106;2024-02-16T06:58:49;10.30;99.90
15819;DHT22;8010;53.986;12.106;2024-02-16T07:01:15;10.30;99.90
15819;DHT22;8010;53.986;12.106;2024-02-16T07:03:42;10.30;99.90
15819;DHT22;8010;53.986;12.106;2024-02-16T07:06:08;10.30;99.90
15819;DHT22;8010;53.986;12.106;2024-02-16T07:08:41;10.30;99.90
15819;DHT22;8010;53.986;12.106;2024-02-16T07:11:06;10.30;99.90
15819;DHT22;8010;53.986;12.106;2024-02-16T07:13:33;10.30;99.90
15819;DHT22;8010;53.986;12.106;2024-02-16T07:15:59;10.40;99.90
15819;DHT22;8010;53.986;12.106;2024-02-16T07:18:24;10.40;99.90
15819;DHT22;8010;53.986;12.106;2024-02-16T07:20:50;10.40;99.90
15819;DHT22;8010;53.986;12.106;2024-02-16T07:23:15;10.40;99.90
15819;DHT22;8010;53.986;12.106;2024-02-16T07:25:41;10.40;99.90
15819;DHT22;8010;53.986;12.106;2024-02-16T07:28:08;10.50;99.90
15819;DHT22;8010;53.986;12.106;2024-02-16T07:30:34;10.50;99.90
15819;DHT22;8010;53.986;12.106;2024-02-16T07:33:00;10.50;99.90
15819;DHT22;8010;53.986;12.106;2024-02-16T07:35:25;10.50;99.90
15819;DHT22;8010;53.986;12.106;2024-02-16T07:37:51;10.50;99.90
15819;DHT22;8010;53.986;12.106;2024-02-16T07:40:22;10.50;99.90
15819;DHT22;8010;53.986;12.106;2024-02-16T07:42:48;10.50;99.90
15819;DHT22;8010;53.986;12.106;2024-02-16T07:45:13;10.50;99.90
15819;DHT22;8010;53.986;12.106;2024-02-16T07:47:42;10.50;99.90
15819;DHT22;8010;53.986;12.106;2024-02-16T07:50:08;10.60;99.90
15819;DHT22;8010;53.986;12.106;2024-02-16T07:52:34;10.60;99.90
15819;DHT22;8010;53.986;12.106;2024-02-16T07:55:00;10.60;99.90
15819;DHT22;8010;53.986;12.106;2024-02-16T07:57:26;10.60;99.90
15819;DHT22;8010;53.986;12.106;2024-02-16T07:59:52;10.60;99.90
15819;DHT22;8010;53.986;12.106;2024-02-16T08:02:17;10.60;99.90
15819;DHT22;8010;53.986;12.106;2024-02-16T08:04:47;10.60;99.90
15819;DHT22;8010;53.986;12.106;2024-02-16T08:07:13;10.70;99.90
15819;DHT22;8010;53.986;12.106;2024-02-16T08:09:38;10.70;99.90
15819;DHT22;8010;53.986;12.106;2024-02-16T08:12:05;10.70;99.90
15819;DHT22;8010;53.986;12.106;2024-02-16T08:14:32;10.70;99.90
15819;DHT22;8010;53.986;12.106;2024-02-16T08:16:58;10.70;99.90
15819;DHT22;8010;53.986;12.106;2024-02-16T08:19:32;10.80;99.90
15819;DHT22;8010;53.986;12.106;2024-02-16T08:21:59;10.80;99.90
15819;DHT22;8010;53.986;12.106;2024-02-16T08:24:26;10.80;99.90
15819;DHT22;8010;53.986;12.106;2024-02-16T08:26:52;10.80;99.90
15819;DHT22;8010;53.986;12.106;2024-02-16T08:29:17;10.90;99.90
15819;DHT22;8010;53.986;12.106;2024-02-16T08:31:43;10.90;99.90
15819;DHT22;8010;53.986;12.106;2024-02-16T08:34:09;10.90;99.90
15819;DHT22;8010;53.986;12.106;2024-02-16T08:36:36;10.90;99.90
15819;DHT22;8010;53.986;12.106;2024-02-16T08:39:01;10.90;99.90
15819;DHT22;8010;53.986;12.106;2024-02-16T08:41:27;10.90;99.90
15819;DHT22;8010;53.986;12.106;2024-02-16T08:43:52;10.90;99.90
15819;DHT22;8010;53.986;12.106;2024-02-16T08:46:18;11.00;99.90
15819;DHT22;8010;53.986;12.106;2024-02-16T08:48:47;10.90;99.90
15819;DHT22;8010;53.986;12.106;2024-02-16T08:51:12;10.90;99.90
15819;DHT22;8010;53.986;12.106;2024-02-16T08:53:38;11.00;99.90
15819;DHT22;8010;53.986;12.106;2024-02-16T08:56:09;11.00;99.90
15819;DHT22;8010;53.986;12.106;2024-02-16T08:58:35;11.00;99.90
15819;DHT22;8010;53.986;12.106;2024-02-16T09:01:01;11.00;99.90
15819;DHT22;8010;53.986;12.106;2024-02-16T09:03:26;11.10;99.90
15819;DHT22;8010;53.986;12.106;2024-02-16T09:05:52;11.10;99.90
15819;DHT22;8010;53.986;12.106;2024-02-16T09:08:17;11.10;99.90
15819;DHT22;8010;53.986;12.106;2024-02-16T09:10:43;11.20;99.90
15819;DHT22;8010;53.986;12.106;2024-02-16T09:13:08;11.30;99.90
15819;DHT22;8010;53.986;12.106;2024-02-16T09:15:34;11.40;99.90
15819;DHT22;8010;53.986;12.106;2024-02-16T09:18:00;11.50;99.90
15819;DHT22;8010;53.986;12.106;2024-02-16T09:20:25;11.60;99.90
15819;DHT22;8010;53.986;12.106;2024-02-16T09:22:51;11.70;99.90
15819;DHT22;8010;53.986;12.106;2024-02-16T09:25:16;11.80;99.90
15819;DHT22;8010;53.986;12.106;2024-02-16T09:27:42;11.90;99.90
15819;DHT22;8010;53.986;12.106;2024-02-16T09:30:11;12.00;99.90
15819;DHT22;8010;53.986;12.106;2024-02-16T09:32:40;12.00;99.90
15819;DHT22;8010;53.986;12.106;2024-02-16T09:35:06;12.00;99.90
15819;DHT22;8010;53.986;12.106;2024-02-16T09:37:32;12.10;99.90
15819;DHT22;8010;53.986;12.106;2024-02-16T09:39:57;12.10;99.90
15819;DHT22;8010;53.986;12.106;2024-02-16T09:42:23;12.10;99.90
15819;DHT22;8010;53.986;12.106;2024-02-16T09:44:51;12.10;99.90
15819;DHT22;8010;53.986;12.106;2024-02-16T09:47:21;12.10;99.90
15819;DHT22;8010;53.986;12.106;2024-02-16T09:49:48;12.10;99.90
15819;DHT22;8010;53.986;12.106;2024-02-16T09:52:13;12.10;99.90
15819;DHT22;8010;53.986;12.106;2024-02-16T09:54:39;12.10;99.90
15819;DHT22;8010;53.986;12.106;2024-02-16T09:57:05;12.10;99.90
15819;DHT22;8010;53.986;12.106;2024-02-16T09:59:30;12.20;99.90
15819;DHT22;8010;53.986;12.106;2024-02-16T10:02:01;12.10;99.90
15819;DHT22;8010;53.986;12.106;2024-02-16T10:04:27;12.10;99.90
15819;DHT22;8010;53.986;12.106;2024-02-16T10:06:53;12.20;99.90
15819;DHT22;8010;53.986;12.106;2024-02-16T10:09:25;12.20;99.90
15819;DHT22;8010;53.986;12.106;2024-02-16T10:11:51;12.20;99.90
15819;DHT22;8010;53.986;12.106;2024-02-16T10:14:17;12.30;99.90
15819;DHT22;8010;53.986;12.106;2024-02-16T10:16:45;12.30;99.90
15819;DHT22;8010;53.986;12.106;2024-02-16T10:19:12;12.40;99.90
15819;DHT22;8010;53.986;12.106;2024-02-16T10:21:37;12.50;99.90
15819;DHT22;8010;53.986;12.106;2024-02-16T10:24:11;12.60;99.90
15819;DHT22;8010;53.986;12.106;2024-02-16T10:26:40;12.80;99.90
15819;DHT22;8010;53.986;12.106;2024-02-16T10:29:08;12.90;99.90
15819;DHT22;8010;53.986;12.106;2024-02-16T10:31:34;13.20;99.90
15819;DHT22;8010;53.986;12.106;2024-02-16T10:34:02;13.50;99.90
15819;DHT22;8010;53.986;12.106;2024-02-16T10:36:33;13.80;99.90
15819;DHT22;8010;53.986;12.106;2024-02-16T10:38:59;14.00;99.90
15819;DHT22;8010;53.986;12.106;2024-02-16T10:41:28;14.20;99.90
15819;DHT22;8010;53.986;12.106;2024-02-16T10:43:56;14.40;99.90
15819;DHT22;8010;53.986;12.106;2024-02-16T10:46:25;14.50;99.90
15819;DHT22;8010;53.986;12.106;2024-02-16T10:48:51;14.60;99.90
15819;DHT22;8010;53.986;12.106;2024-02-16T10:51:24;14.70;99.90
15819;DHT22;8010;53.986;12.106;2024-02-16T10:53:52;14.80;99.90
15819;DHT22;8010;53.986;12.106;2024-02-16T10:56:27;14.90;99.90
15819;DHT22;8010;53.986;12.106;2024-02-16T10:58:53;15.00;99.90
15819;DHT22;8010;53.986;12.106;2024-02-16T11:01:19;15.10;99.90
15819;DHT22;8010;53.986;12.106;2024-02-16T11:03:45;15.20;99.90
15819;DHT22;8010;53.986;12.106;2024-02-16T11:06:17;15.30;99.90
15819;DHT22;8010;53.986;12.106;2024-02-16T11:08:43;15.40;99.90
15819;DHT22;8010;53.986;12.106;2024-02-16T11:11:09;15.50;99.90
15819;DHT22;8010;53.986;12.106;2024-02-16T11:13:38;15.50;99.90
15819;DHT22;8010;53.986;12.106;2024-02-16T11:16:09;15.30;99.90
15819;DHT22;8010;53.986;12.106;2024-02-16T11:18:39;15.50;99.90
15819;DHT22;8010;53.986;12.106;2024-02-16T11:21:05;15.60;99.90
15819;DHT22;8010;53.986;12.106;2024-02-16T11:23:34;15.60;99.90
15819;DHT22;8010;53.986;12.106;2024-02-16T11:26:02;15.50;99.90
15819;DHT22;8010;53.986;12.106;2024-02-16T11:28:32;15.50;99.90
15819;DHT22;8010;53.986;12.106;2024-02-16T11:30:58;15.50;99.90
15819;DHT22;8010;53.986;12.106;2024-02-16T11:33:25;15.60;99.90
15819;DHT22;8010;53.986;12.106;2024-02-16T11:35:57;15.70;99.90
15819;DHT22;8010;53.986;12.106;2024-02-16T11:38:24;15.70;99.90
15819;DHT22;8010;53.986;12.106;2024-02-16T11:40:57;15.80;99.90
15819;DHT22;8010;53.986;12.106;2024-02-16T11:43:23;15.80;99.90
15819;DHT22;8010;53.986;12.106;2024-02-16T11:45:49;15.80;99.90
15819;DHT22;8010;53.986;12.106;2024-02-16T11:48:26;15.90;99.90
15819;DHT22;8010;53.986;12.106;2024-02-16T11:51:05;15.90;99.90
15819;DHT22;8010;53.986;12.106;2024-02-16T11:53:31;15.90;99.90
15819;DHT22;8010;53.986;12.106;2024-02-16T11:55:57;15.80;99.90
15819;DHT22;8010;53.986;12.106;2024-02-16T11:58:23;15.70;99.90
15819;DHT22;8010;53.986;12.106;2024-02-16T12:00:50;15.70;99.90
15819;DHT22;8010;53.986;12.106;2024-02-16T12:03:25;15.60;99.90
15819;DHT22;8010;53.986;12.106;2024-02-16T12:05:52;15.70;99.90
15819;DHT22;8010;53.986;12.106;2024-02-16T12:08:19;15.90;99.90
15819;DHT22;8010;53.986;12.106;2024-02-16T12:10:46;16.10;99.90
15819;DHT22;8010;53.986;12.106;2024-02-16T12:13:12;16.20;99.90
15819;DHT22;8010;53.986;12.106;2024-02-16T12:15:38;16.20;99.90
15819;DHT22;8010;53.986;12.106;2024-02-16T12:18:04;16.20;99.90
15819;DHT22;8010;53.986;12.106;2024-02-16T12:20:30;16.10;99.90
15819;DHT22;8010;53.986;12.106;2024-02-16T12:22:57;16.00;99.90
15819;DHT22;8010;53.986;12.106;2024-02-16T12:25:24;16.10;99.90
15819;DHT22;8010;53.986;12.106;2024-02-16T12:27:50;16.20;99.90
15819;DHT22;8010;53.986;12.106;2024-02-16T12:30:16;16.20;99.90
15819;DHT22;8010;53.986;12.106;2024-02-16T12:32:41;16.10;99.90
15819;DHT22;8010;53.986;12.106;2024-02-16T12:35:07;16.00;99.90
15819;DHT22;8010;53.986;12.106;2024-02-16T12:37:33;15.90;99.90
15819;DHT22;8010;53.986;12.106;2024-02-16T12:40:00;15.80;99.90
15819;DHT22;8010;53.986;12.106;2024-02-16T12:42:26;15.70;99.90
15819;DHT22;8010;53.986;12.106;2024-02-16T12:44:52;15.60;99.90
15819;DHT22;8010;53.986;12.106;2024-02-16T12:47:18;15.50;99.90
15819;DHT22;8010;53.986;12.106;2024-02-16T12:49:43;15.50;99.90
15819;DHT22;8010;53.986;12.106;2024-02-16T12:52:09;15.50;99.90
15819;DHT22;8010;53.986;12.106;2024-02-16T12:54:34;15.40;99.90
15819;DHT22;8010;53.986;12.106;2024-02-16T12:57:00;15.40;99.90
15819;DHT22;8010;53.986;12.106;2024-02-16T12:59:25;15.30;99.90
15819;DHT22;8010;53.986;12.106;2024-02-16T13:01:51;15.30;99.90
15819;DHT22;8010;53.986;12.106;2024-02-16T13:04:17;15.30;99.90
15819;DHT22;8010;53.986;12.106;2024-02-16T13:06:48;15.20;99.90
15819;DHT22;8010;53.986;12.106;2024-02-16T13:09:14;15.20;99.90
15819;DHT22;8010;53.986;12.106;2024-02-16T13:11:40;15.20;99.90
15819;DHT22;8010;53.986;12.106;2024-02-16T13:14:06;15.20;99.90
15819;DHT22;8010;53.986;12.106;2024-02-16T13:16:32;15.20;99.90
15819;DHT22;8010;53.986;12.106;2024-02-16T13:18:57;15.20;99.90
15819;DHT22;8010;53.986;12.106;2024-02-16T13:21:23;15.10;99.90
15819;DHT22;8010;53.986;12.106;2024-02-16T13:23:48;15.10;99.90
15819;DHT22;8010;53.986;12.106;2024-02-16T13:26:14;15.00;99.90
15819;DHT22;8010;53.986;12.106;2024-02-16T13:28:40;15.00;99.90
15819;DHT22;8010;53.986;12.106;2024-02-16T13:31:05;15.00;99.90
15819;DHT22;8010;53.986;12.106;2024-02-16T13:33:31;15.10;99.90
15819;DHT22;8010;53.986;12.106;2024-02-16T13:35:56;15.20;99.90
15819;DHT22;8010;53.986;12.106;2024-02-16T13:38:22;15.30;99.90
15819;DHT22;8010;53.986;12.106;2024-02-16T13:40:47;15.40;99.90
15819;DHT22;8010;53.986;12.106;2024-02-16T13:43:14;15.50;99.90
15819;DHT22;8010;53.986;12.106;2024-02-16T13:45:50;15.60;99.90
15819;DHT22;8010;53.986;12.106;2024-02-16T13:48:16;15.60;99.90
15819;DHT22;8010;53.986;12.106;2024-02-16T13:50:49;15.70;99.90
15819;DHT22;8010;53.986;12.106;2024-02-16T13:53:16;15.70;99.90
15819;DHT22;8010;53.986;12.106;2024-02-16T13:55:42;15.70;99.90
15819;DHT22;8010;53.986;12.106;2024-02-16T13:58:12;15.70;99.90
15819;DHT22;8010;53.986;12.106;2024-02-16T14:00:38;15.70;99.90
15819;DHT22;8010;53.986;12.106;2024-02-16T14:03:05;15.70;99.90
15819;DHT22;8010;53.986;12.106;2024-02-16T14:05:35;15.70;99.90
15819;DHT22;8010;53.986;12.106;2024-02-16T14:08:01;15.80;99.90
15819;DHT22;8010;53.986;12.106;2024-02-16T14:10:26;15.80;99.90
15819;DHT22;8010;53.986;12.106;2024-02-16T14:12:52;15.70;99.90
15819;DHT22;8010;53.986;12.106;2024-02-16T14:15:17;15.70;99.90
15819;DHT22;8010;53.986;12.106;2024-02-16T14:17:44;15.60;99.90
15819;DHT22;8010;53.986;12.106;2024-02-16T14:20:10;15.60;99.90
15819;DHT22;8010;53.986;12.106;2024-02-16T14:22:36;15.50;99.90
15819;DHT22;8010;53.986;12.106;2024-02-16T14:25:02;15.50;99.90
15819;DHT22;8010;53.986;12.106;2024-02-16T14:27:28;15.50;99.90
15819;DHT22;8010;53.986;12.106;2024-02-16T14:29:55;15.40;99.90
15819;DHT22;8010;53.986;12.106;2024-02-16T14:32:20;15.30;99.90
15819;DHT22;8010;53.986;12.106;2024-02-16T14:34:46;15.40;99.90
15819;DHT22;8010;53.986;12.106;2024-02-16T14:37:11;15.30;99.90
15819;DHT22;8010;53.986;12.106;2024-02-16T14:39:37;15.30;99.90
15819;DHT22;8010;53.986;12.106;2024-02-16T14:42:03;15.30;99.90
15819;DHT22;8010;53.986;12.106;2024-02-16T14:44:28;15.30;99.90
15819;DHT22;8010;53.986;12.106;2024-02-16T14:46:54;15.20;99.90
15819;DHT22;8010;53.986;12.106;2024-02-16T14:49:19;15.20;99.90
15819;DHT22;8010;53.986;12.106;2024-02-16T14:51:49;15.20;99.90
15819;DHT22;8010;53.986;12.106;2024-02-16T14:54:14;15.10;99.90
15819;DHT22;8010;53.986;12.106;2024-02-16T14:56:40;15.10;99.90
15819;DHT22;8010;53.986;12.106;2024-02-16T14:59:06;15.00;99.90
15819;DHT22;8010;53.986;12.106;2024-02-16T15:01:31;15.00;99.90
15819;DHT22;8010;53.986;12.106;2024-02-16T15:03:57;14.90;99.90
15819;DHT22;8010;53.986;12.106;2024-02-16T15:06:23;14.90;99.90
15819;DHT22;8010;53.986;12.106;2024-02-16T15:08:50;14.90;99.90
15819;DHT22;8010;53.986;12.106;2024-02-16T15:11:16;14.80;99.90
15819;DHT22;8010;53.986;12.106;2024-02-16T15:13:42;14.80;99.90
15819;DHT22;8010;53.986;12.106;2024-02-16T15:16:08;14.90;99.90
15819;DHT22;8010;53.986;12.106;2024-02-16T15:18:35;14.80;99.90
15819;DHT22;8010;53.986;12.106;2024-02-16T15:21:00;14.80;99.90
15819;DHT22;8010;53.986;12.106;2024-02-16T15:23:26;14.80;99.90
15819;DHT22;8010;53.986;12.106;2024-02-16T15:25:52;14.80;99.90